sensor_id;sensor_type;location;lat;lon;timestamp;P1;durP1;ratioP1;P2;durP2;ratioP2
25932;SDS011;13731;51.166;4.474;2022-08-19T00:01:50;77.03;;;71.18;;
25932;SDS011;13731;51.166;4.474;2022-08-19T00:04:18;79.68;;;73.40;;
25932;SDS011;13731;51.166;4.474;2022-08-19T00:06:49;72.65;;;66.72;;
25932;SDS011;13731;51.166;4.474;2022-08-19T00:09:16;67.18;;;61.67;;
25932;SDS011;13731;51.166;4.474;2022-08-19T00:11:44;72.97;;;67.00;;
25932;SDS011;13731;51.166;4.474;2022-08-19T00:14:10;89.40;;;82.22;;
25932;SDS011;13731;51.166;4.474;2022-08-19T00:16:38;99.20;;;91.80;;
25932;SDS011;13731;51.166;4.474;2022-08-19T00:19:06;106.85;;;99.15;;
25932;SDS011;13731;51.166;4.474;2022-08-19T00:21:32;113.75;;;105.63;;
25932;SDS011;13731;51.166;4.474;2022-08-19T00:24:01;124.55;;;115.82;;
25932;SDS011;13731;51.166;4.474;2022-08-19T00:26:28;122.82;;;114.70;;
25932;SDS011;13731;51.166;4.474;2022-08-19T00:28:54;129.77;;;120.80;;
25932;SDS011;13731;51.166;4.474;2022-08-19T00:31:21;126.82;;;117.82;;
25932;SDS011;13731;51.166;4.474;2022-08-19T00:33:47;125.50;;;116.93;;
25932;SDS011;13731;51.166;4.474;2022-08-19T00:36:15;121.82;;;113.50;;
25932;SDS011;13731;51.166;4.474;2022-08-19T00:38:42;121.35;;;112.55;;
25932;SDS011;13731;51.166;4.474;2022-08-19T00:41:13;119.03;;;110.53;;
25932;SDS011;13731;51.166;4.474;2022-08-19T00:43:41;111.07;;;102.68;;
25932;SDS011;13731;51.166;4.474;2022-08-19T00:46:07;125.10;;;116.00;;
25932;SDS011;13731;51.166;4.474;2022-08-19T00:48:34;166.57;;;155.57;;
25932;SDS011;13731;51.166;4.474;2022-08-19T00:51:01;241.65;;;227.25;;
25932;SDS011;13731;51.166;4.474;2022-08-19T00:53:29;265.35;;;250.50;;
25932;SDS011;13731;51.166;4.474;2022-08-19T00:55:58;292.92;;;276.58;;
25932;SDS011;13731;51.166;4.474;2022-08-19T00:58:27;272.60;;;256.70;;
25932;SDS011;13731;51.166;4.474;2022-08-19T01:00:55;236.15;;;222.38;;
25932;SDS011;13731;51.166;4.474;2022-08-19T01:03:23;195.40;;;182.95;;
25932;SDS011;13731;51.166;4.474;2022-08-19T01:05:49;141.25;;;132.13;;
25932;SDS011;13731;51.166;4.474;2022-08-19T01:08:17;114.03;;;105.78;;
25932;SDS011;13731;51.166;4.474;2022-08-19T01:10:51;102.88;;;95.07;;
25932;SDS011;13731;51.166;4.474;2022-08-19T01:13:21;102.68;;;95.30;;
25932;SDS011;13731;51.166;4.474;2022-08-19T01:16:08;113.22;;;105.18;;
25932;SDS011;13731;51.166;4.474;2022-08-19T01:18:38;111.00;;;102.80;;
25932;SDS011;13731;51.166;4.474;2022-08-19T01:21:11;109.40;;;100.72;;
25932;SDS011;13731;51.166;4.474;2022-08-19T01:23:43;106.63;;;98.63;;
25932;SDS011;13731;51.166;4.474;2022-08-19T01:26:14;107.55;;;99.38;;
25932;SDS011;13731;51.166;4.474;2022-08-19T01:28:42;105.65;;;97.20;;
25932;SDS011;13731;51.166;4.474;2022-08-19T01:31:10;97.07;;;89.53;;
25932;SDS011;13731;51.166;4.474;2022-08-19T01:33:40;100.45;;;92.03;;
25932;SDS011;13731;51.166;4.474;2022-08-19T01:36:07;101.32;;;93.40;;
25932;SDS011;13731;51.166;4.474;2022-08-19T01:38:38;100.82;;;93.10;;
25932;SDS011;13731;51.166;4.474;2022-08-19T01:41:07;114.40;;;105.82;;
25932;SDS011;13731;51.166;4.474;2022-08-19T01:43:33;137.07;;;127.97;;
25932;SDS011;13731;51.166;4.474;2022-08-19T01:45:58;153.48;;;143.23;;
25932;SDS011;13731;51.166;4.474;2022-08-19T01:48:24;160.52;;;149.55;;
25932;SDS011;13731;51.166;4.474;2022-08-19T01:50:50;164.02;;;152.82;;
25932;SDS011;13731;51.166;4.474;2022-08-19T01:53:16;161.13;;;150.63;;
25932;SDS011;13731;51.166;4.474;2022-08-19T01:55:42;157.95;;;147.10;;
25932;SDS011;13731;51.166;4.474;2022-08-19T01:58:13;139.68;;;129.75;;
25932;SDS011;13731;51.166;4.474;2022-08-19T02:00:43;118.40;;;109.38;;
25932;SDS011;13731;51.166;4.474;2022-08-19T02:03:10;114.88;;;105.88;;
25932;SDS011;13731;51.166;4.474;2022-08-19T02:05:36;113.88;;;104.85;;
25932;SDS011;13731;51.166;4.474;2022-08-19T02:08:03;115.93;;;106.82;;
25932;SDS011;13731;51.166;4.474;2022-08-19T02:10:29;113.80;;;104.55;;
25932;SDS011;13731;51.166;4.474;2022-08-19T02:12:54;118.95;;;109.60;;
25932;SDS011;13731;51.166;4.474;2022-08-19T02:15:20;113.75;;;104.93;;
25932;SDS011;13731;51.166;4.474;2022-08-19T02:17:47;111.97;;;103.03;;
25932;SDS011;13731;51.166;4.474;2022-08-19T02:20:13;109.63;;;100.80;;
25932;SDS011;13731;51.166;4.474;2022-08-19T02:22:40;110.25;;;101.40;;
25932;SDS011;13731;51.166;4.474;2022-08-19T02:25:12;106.85;;;98.13;;
25932;SDS011;13731;51.166;4.474;2022-08-19T02:27:40;107.10;;;98.68;;
25932;SDS011;13731;51.166;4.474;2022-08-19T02:30:07;104.53;;;95.78;;
25932;SDS011;13731;51.166;4.474;2022-08-19T02:32:35;100.82;;;92.03;;
25932;SDS011;13731;51.166;4.474;2022-08-19T02:35:01;99.35;;;90.63;;
25932;SDS011;13731;51.166;4.474;2022-08-19T02:37:27;92.60;;;84.28;;
25932;SDS011;13731;51.166;4.474;2022-08-19T02:40:12;87.68;;;79.35;;
25932;SDS011;13731;51.166;4.474;2022-08-19T02:42:38;93.57;;;84.60;;
25932;SDS011;13731;51.166;4.474;2022-08-19T02:45:05;97.75;;;89.03;;
25932;SDS011;13731;51.166;4.474;2022-08-19T02:47:32;102.70;;;93.40;;
25932;SDS011;13731;51.166;4.474;2022-08-19T02:50:00;105.53;;;96.70;;
25932;SDS011;13731;51.166;4.474;2022-08-19T02:52:27;104.25;;;94.63;;
25932;SDS011;13731;51.166;4.474;2022-08-19T02:54:53;100.80;;;91.53;;
25932;SDS011;13731;51.166;4.474;2022-08-19T02:57:23;105.53;;;96.22;;
25932;SDS011;13731;51.166;4.474;2022-08-19T02:59:49;115.38;;;105.35;;
25932;SDS011;13731;51.166;4.474;2022-08-19T03:02:15;115.03;;;105.00;;
25932;SDS011;13731;51.166;4.474;2022-08-19T03:04:41;116.93;;;107.13;;
25932;SDS011;13731;51.166;4.474;2022-08-19T03:07:08;113.90;;;104.43;;
25932;SDS011;13731;51.166;4.474;2022-08-19T03:09:36;124.38;;;114.38;;
25932;SDS011;13731;51.166;4.474;2022-08-19T03:12:03;127.90;;;117.30;;
25932;SDS011;13731;51.166;4.474;2022-08-19T03:14:32;137.00;;;126.30;;
25932;SDS011;13731;51.166;4.474;2022-08-19T03:16:59;133.75;;;123.45;;
25932;SDS011;13731;51.166;4.474;2022-08-19T03:19:25;129.65;;;119.43;;
25932;SDS011;13731;51.166;4.474;2022-08-19T03:21:51;136.20;;;125.85;;
25932;SDS011;13731;51.166;4.474;2022-08-19T03:24:17;137.10;;;126.70;;
25932;SDS011;13731;51.166;4.474;2022-08-19T03:26:46;144.73;;;133.45;;
25932;SDS011;13731;51.166;4.474;2022-08-19T03:29:14;143.93;;;132.15;;
25932;SDS011;13731;51.166;4.474;2022-08-19T03:31:42;123.95;;;114.18;;
25932;SDS011;13731;51.166;4.474;2022-08-19T03:34:09;118.25;;;108.70;;
25932;SDS011;13731;51.166;4.474;2022-08-19T03:36:36;130.70;;;120.30;;
25932;SDS011;13731;51.166;4.474;2022-08-19T03:39:03;136.20;;;125.50;;
25932;SDS011;13731;51.166;4.474;2022-08-19T03:41:31;144.48;;;133.65;;
25932;SDS011;13731;51.166;4.474;2022-08-19T03:44:05;135.93;;;125.70;;
25932;SDS011;13731;51.166;4.474;2022-08-19T03:46:34;138.05;;;127.88;;
25932;SDS011;13731;51.166;4.474;2022-08-19T03:49:02;142.63;;;132.25;;
25932;SDS011;13731;51.166;4.474;2022-08-19T03:51:38;165.15;;;153.77;;
25932;SDS011;13731;51.166;4.474;2022-08-19T03:54:05;156.10;;;145.30;;
25932;SDS011;13731;51.166;4.474;2022-08-19T03:56:36;145.05;;;134.50;;
25932;SDS011;13731;51.166;4.474;2022-08-19T03:59:04;137.98;;;127.78;;
25932;SDS011;13731;51.166;4.474;2022-08-19T04:01:32;140.40;;;130.50;;
25932;SDS011;13731;51.166;4.474;2022-08-19T04:03:58;134.60;;;123.97;;
25932;SDS011;13731;51.166;4.474;2022-08-19T04:06:26;144.15;;;133.55;;
25932;SDS011;13731;51.166;4.474;2022-08-19T04:08:55;143.77;;;133.68;;
25932;SDS011;13731;51.166;4.474;2022-08-19T04:11:25;145.05;;;134.88;;
25932;SDS011;13731;51.166;4.474;2022-08-19T04:13:52;128.13;;;118.68;;
25932;SDS011;13731;51.166;4.474;2022-08-19T04:16:20;135.43;;;125.07;;
25932;SDS011;13731;51.166;4.474;2022-08-19T04:18:47;149.35;;;138.25;;
25932;SDS011;13731;51.166;4.474;2022-08-19T04:21:18;147.07;;;136.43;;
25932;SDS011;13731;51.166;4.474;2022-08-19T04:23:47;145.65;;;135.63;;
25932;SDS011;13731;51.166;4.474;2022-08-19T04:26:18;158.60;;;147.77;;
25932;SDS011;13731;51.166;4.474;2022-08-19T04:28:47;145.98;;;135.52;;
25932;SDS011;13731;51.166;4.474;2022-08-19T04:31:14;144.63;;;134.68;;
25932;SDS011;13731;51.166;4.474;2022-08-19T04:33:52;132.15;;;122.22;;
25932;SDS011;13731;51.166;4.474;2022-08-19T04:36:23;142.05;;;132.20;;
25932;SDS011;13731;51.166;4.474;2022-08-19T04:38:54;140.77;;;130.85;;
25932;SDS011;13731;51.166;4.474;2022-08-19T04:41:22;136.80;;;126.97;;
25932;SDS011;13731;51.166;4.474;2022-08-19T04:44:08;139.55;;;129.30;;
25932;SDS011;13731;51.166;4.474;2022-08-19T04:46:34;140.70;;;130.32;;
25932;SDS011;13731;51.166;4.474;2022-08-19T04:49:00;139.48;;;129.82;;
25932;SDS011;13731;51.166;4.474;2022-08-19T04:53:56;96.38;;;88.75;;
25932;SDS011;13731;51.166;4.474;2022-08-19T04:56:22;128.30;;;118.93;;
25932;SDS011;13731;51.166;4.474;2022-08-19T04:58:51;132.45;;;122.97;;
25932;SDS011;13731;51.166;4.474;2022-08-19T05:01:18;131.60;;;122.53;;
25932;SDS011;13731;51.166;4.474;2022-08-19T05:03:46;122.03;;;113.28;;
25932;SDS011;13731;51.166;4.474;2022-08-19T05:06:13;122.15;;;113.18;;
25932;SDS011;13731;51.166;4.474;2022-08-19T05:08:40;120.65;;;111.35;;
25932;SDS011;13731;51.166;4.474;2022-08-19T05:11:13;110.22;;;102.35;;
25932;SDS011;13731;51.166;4.474;2022-08-19T05:13:42;116.30;;;107.32;;
25932;SDS011;13731;51.166;4.474;2022-08-19T05:16:10;119.00;;;109.95;;
25932;SDS011;13731;51.166;4.474;2022-08-19T05:18:37;115.05;;;106.75;;
25932;SDS011;13731;51.166;4.474;2022-08-19T05:21:21;108.13;;;100.45;;
25932;SDS011;13731;51.166;4.474;2022-08-19T05:24:06;103.95;;;96.13;;
25932;SDS011;13731;51.166;4.474;2022-08-19T05:26:38;113.75;;;105.13;;
25932;SDS011;13731;51.166;4.474;2022-08-19T05:29:07;114.30;;;106.05;;
25932;SDS011;13731;51.166;4.474;2022-08-19T05:31:34;114.53;;;105.97;;
25932;SDS011;13731;51.166;4.474;2022-08-19T05:34:01;129.73;;;120.82;;
25932;SDS011;13731;51.166;4.474;2022-08-19T05:36:32;131.35;;;122.72;;
25932;SDS011;13731;51.166;4.474;2022-08-19T05:39:00;120.93;;;112.60;;
25932;SDS011;13731;51.166;4.474;2022-08-19T05:41:28;129.07;;;119.95;;
25932;SDS011;13731;51.166;4.474;2022-08-19T05:43:56;127.38;;;118.68;;
25932;SDS011;13731;51.166;4.474;2022-08-19T05:46:22;125.90;;;116.85;;
25932;SDS011;13731;51.166;4.474;2022-08-19T05:48:48;125.72;;;117.18;;
25932;SDS011;13731;51.166;4.474;2022-08-19T05:51:14;126.03;;;117.72;;
25932;SDS011;13731;51.166;4.474;2022-08-19T05:53:41;125.85;;;117.85;;
25932;SDS011;13731;51.166;4.474;2022-08-19T05:56:08;126.30;;;117.85;;
25932;SDS011;13731;51.166;4.474;2022-08-19T05:58:36;116.20;;;108.30;;
25932;SDS011;13731;51.166;4.474;2022-08-19T06:01:04;122.00;;;114.25;;
25932;SDS011;13731;51.166;4.474;2022-08-19T06:03:35;148.88;;;139.50;;
25932;SDS011;13731;51.166;4.474;2022-08-19T06:06:03;116.78;;;109.30;;
25932;SDS011;13731;51.166;4.474;2022-08-19T06:08:30;111.75;;;103.95;;
25932;SDS011;13731;51.166;4.474;2022-08-19T06:10:57;100.32;;;93.80;;
25932;SDS011;13731;51.166;4.474;2022-08-19T06:13:36;98.22;;;91.80;;
25932;SDS011;13731;51.166;4.474;2022-08-19T06:16:02;112.40;;;105.32;;
25932;SDS011;13731;51.166;4.474;2022-08-19T06:18:28;108.93;;;102.00;;
25932;SDS011;13731;51.166;4.474;2022-08-19T06:20:54;116.40;;;109.20;;
25932;SDS011;13731;51.166;4.474;2022-08-19T06:23:19;106.97;;;99.75;;
25932;SDS011;13731;51.166;4.474;2022-08-19T06:25:46;97.03;;;90.22;;
25932;SDS011;13731;51.166;4.474;2022-08-19T06:28:12;93.55;;;87.22;;
25932;SDS011;13731;51.166;4.474;2022-08-19T06:30:38;76.40;;;71.30;;
25932;SDS011;13731;51.166;4.474;2022-08-19T06:33:04;84.65;;;79.22;;
25932;SDS011;13731;51.166;4.474;2022-08-19T06:35:30;94.32;;;87.97;;
25932;SDS011;13731;51.166;4.474;2022-08-19T06:37:56;103.60;;;97.35;;
25932;SDS011;13731;51.166;4.474;2022-08-19T06:40:22;105.15;;;98.47;;
25932;SDS011;13731;51.166;4.474;2022-08-19T06:42:48;103.05;;;95.97;;
25932;SDS011;13731;51.166;4.474;2022-08-19T06:45:13;113.20;;;106.05;;
25932;SDS011;13731;51.166;4.474;2022-08-19T06:47:40;112.93;;;106.15;;
25932;SDS011;13731;51.166;4.474;2022-08-19T06:50:11;111.55;;;104.13;;
25932;SDS011;13731;51.166;4.474;2022-08-19T06:52:37;103.53;;;97.00;;
25932;SDS011;13731;51.166;4.474;2022-08-19T06:55:04;111.60;;;104.95;;
25932;SDS011;13731;51.166;4.474;2022-08-19T06:57:31;115.32;;;108.45;;
25932;SDS011;13731;51.166;4.474;2022-08-19T06:59:57;125.47;;;117.65;;
25932;SDS011;13731;51.166;4.474;2022-08-19T07:02:25;133.63;;;125.88;;
25932;SDS011;13731;51.166;4.474;2022-08-19T07:04:51;132.68;;;124.57;;
25932;SDS011;13731;51.166;4.474;2022-08-19T07:07:18;114.50;;;107.32;;
25932;SDS011;13731;51.166;4.474;2022-08-19T07:09:45;113.25;;;106.45;;
25932;SDS011;13731;51.166;4.474;2022-08-19T07:12:12;126.63;;;118.97;;
25932;SDS011;13731;51.166;4.474;2022-08-19T07:14:42;113.68;;;106.70;;
25932;SDS011;13731;51.166;4.474;2022-08-19T07:17:11;109.75;;;102.70;;
25932;SDS011;13731;51.166;4.474;2022-08-19T07:19:37;90.20;;;83.93;;
25932;SDS011;13731;51.166;4.474;2022-08-19T07:22:05;104.78;;;98.28;;
25932;SDS011;13731;51.166;4.474;2022-08-19T07:24:32;127.72;;;120.03;;
25932;SDS011;13731;51.166;4.474;2022-08-19T07:27:00;147.30;;;139.00;;
25932;SDS011;13731;51.166;4.474;2022-08-19T07:29:29;166.73;;;157.57;;
25932;SDS011;13731;51.166;4.474;2022-08-19T07:31:59;148.68;;;140.23;;
25932;SDS011;13731;51.166;4.474;2022-08-19T07:34:27;128.18;;;120.53;;
25932;SDS011;13731;51.166;4.474;2022-08-19T07:36:54;124.18;;;116.63;;
25932;SDS011;13731;51.166;4.474;2022-08-19T07:39:25;122.85;;;115.80;;
25932;SDS011;13731;51.166;4.474;2022-08-19T07:41:52;151.88;;;143.75;;
25932;SDS011;13731;51.166;4.474;2022-08-19T07:44:19;156.02;;;147.07;;
25932;SDS011;13731;51.166;4.474;2022-08-19T07:46:47;156.02;;;147.27;;
25932;SDS011;13731;51.166;4.474;2022-08-19T07:49:15;164.80;;;155.80;;
25932;SDS011;13731;51.166;4.474;2022-08-19T07:51:49;183.07;;;173.18;;
25932;SDS011;13731;51.166;4.474;2022-08-19T07:54:20;183.75;;;174.00;;
25932;SDS011;13731;51.166;4.474;2022-08-19T07:56:48;199.30;;;188.68;;
25932;SDS011;13731;51.166;4.474;2022-08-19T07:59:17;216.32;;;205.48;;
25932;SDS011;13731;51.166;4.474;2022-08-19T08:01:44;195.23;;;185.02;;
25932;SDS011;13731;51.166;4.474;2022-08-19T08:04:10;179.60;;;170.52;;
25932;SDS011;13731;51.166;4.474;2022-08-19T08:06:56;179.25;;;169.77;;
25932;SDS011;13731;51.166;4.474;2022-08-19T08:09:41;179.52;;;170.43;;
25932;SDS011;13731;51.166;4.474;2022-08-19T08:12:10;173.45;;;164.40;;
25932;SDS011;13731;51.166;4.474;2022-08-19T08:14:54;216.02;;;204.82;;
25932;SDS011;13731;51.166;4.474;2022-08-19T08:17:24;200.23;;;190.25;;
25932;SDS011;13731;51.166;4.474;2022-08-19T08:19:52;196.27;;;186.10;;
25932;SDS011;13731;51.166;4.474;2022-08-19T08:22:19;195.07;;;185.10;;
25932;SDS011;13731;51.166;4.474;2022-08-19T08:25:05;170.73;;;161.88;;
25932;SDS011;13731;51.166;4.474;2022-08-19T08:27:40;88.90;;;83.53;;
25932;SDS011;13731;51.166;4.474;2022-08-19T08:30:11;80.10;;;75.72;;
25932;SDS011;13731;51.166;4.474;2022-08-19T08:32:40;83.03;;;78.03;;
25932;SDS011;13731;51.166;4.474;2022-08-19T08:35:08;84.43;;;79.63;;
25932;SDS011;13731;51.166;4.474;2022-08-19T08:37:35;86.70;;;81.90;;
25932;SDS011;13731;51.166;4.474;2022-08-19T08:40:25;91.05;;;85.80;;
25932;SDS011;13731;51.166;4.474;2022-08-19T08:43:37;89.70;;;84.90;;
25932;SDS011;13731;51.166;4.474;2022-08-19T08:48:47;60.05;;;56.38;;
25932;SDS011;13731;51.166;4.474;2022-08-19T08:51:20;88.65;;;83.57;;
25932;SDS011;13731;51.166;4.474;2022-08-19T08:53:58;185.52;;;176.32;;
25932;SDS011;13731;51.166;4.474;2022-08-19T08:56:25;289.67;;;275.73;;
25932;SDS011;13731;51.166;4.474;2022-08-19T09:01:37;163.57;;;155.02;;
25932;SDS011;13731;51.166;4.474;2022-08-19T09:04:04;119.43;;;113.15;;
25932;SDS011;13731;51.166;4.474;2022-08-19T09:09:38;88.47;;;83.78;;
25932;SDS011;13731;51.166;4.474;2022-08-19T09:15:08;100.05;;;94.57;;
25932;SDS011;13731;51.166;4.474;2022-08-19T09:17:37;117.45;;;111.20;;
25932;SDS011;13731;51.166;4.474;2022-08-19T09:22:34;133.65;;;126.72;;
25932;SDS011;13731;51.166;4.474;2022-08-19T09:25:01;81.10;;;76.43;;
25932;SDS011;13731;51.166;4.474;2022-08-19T09:27:28;71.05;;;66.85;;
25932;SDS011;13731;51.166;4.474;2022-08-19T09:29:54;72.30;;;68.28;;
25932;SDS011;13731;51.166;4.474;2022-08-19T09:32:21;84.65;;;80.15;;
25932;SDS011;13731;51.166;4.474;2022-08-19T09:34:47;74.30;;;70.30;;
25932;SDS011;13731;51.166;4.474;2022-08-19T09:37:13;56.72;;;53.42;;
25932;SDS011;13731;51.166;4.474;2022-08-19T09:39:40;78.07;;;73.57;;
25932;SDS011;13731;51.166;4.474;2022-08-19T09:42:06;79.63;;;75.00;;
25932;SDS011;13731;51.166;4.474;2022-08-19T09:44:40;65.30;;;61.50;;
25932;SDS011;13731;51.166;4.474;2022-08-19T09:47:07;71.43;;;67.25;;
25932;SDS011;13731;51.166;4.474;2022-08-19T09:49:34;110.55;;;104.45;;
25932;SDS011;13731;51.166;4.474;2022-08-19T09:52:00;108.88;;;102.93;;
25932;SDS011;13731;51.166;4.474;2022-08-19T09:54:26;103.60;;;97.68;;
25932;SDS011;13731;51.166;4.474;2022-08-19T09:56:53;85.45;;;80.20;;
25932;SDS011;13731;51.166;4.474;2022-08-19T09:59:20;72.22;;;67.65;;
25932;SDS011;13731;51.166;4.474;2022-08-19T10:01:47;98.72;;;93.07;;
25932;SDS011;13731;51.166;4.474;2022-08-19T10:04:12;122.70;;;116.25;;
25932;SDS011;13731;51.166;4.474;2022-08-19T10:06:39;179.25;;;169.88;;
25932;SDS011;13731;51.166;4.474;2022-08-19T10:09:07;228.77;;;216.95;;
25932;SDS011;13731;51.166;4.474;2022-08-19T10:11:35;261.48;;;248.07;;
25932;SDS011;13731;51.166;4.474;2022-08-19T10:14:03;262.52;;;248.70;;
25932;SDS011;13731;51.166;4.474;2022-08-19T10:16:31;225.55;;;213.30;;
25932;SDS011;13731;51.166;4.474;2022-08-19T10:18:57;166.60;;;157.57;;
25932;SDS011;13731;51.166;4.474;2022-08-19T10:21:27;167.93;;;158.98;;
25932;SDS011;13731;51.166;4.474;2022-08-19T10:23:55;181.55;;;171.98;;
25932;SDS011;13731;51.166;4.474;2022-08-19T10:26:25;170.02;;;160.95;;
25932;SDS011;13731;51.166;4.474;2022-08-19T10:31:23;154.65;;;146.25;;
25932;SDS011;13731;51.166;4.474;2022-08-19T10:33:53;149.20;;;141.05;;
25932;SDS011;13731;51.166;4.474;2022-08-19T10:36:23;142.93;;;135.52;;
25932;SDS011;13731;51.166;4.474;2022-08-19T10:38:51;146.88;;;138.90;;
25932;SDS011;13731;51.166;4.474;2022-08-19T10:41:22;124.90;;;117.75;;
25932;SDS011;13731;51.166;4.474;2022-08-19T10:43:53;130.35;;;123.68;;
25932;SDS011;13731;51.166;4.474;2022-08-19T10:46:21;151.40;;;143.10;;
25932;SDS011;13731;51.166;4.474;2022-08-19T10:48:49;152.57;;;144.37;;
25932;SDS011;13731;51.166;4.474;2022-08-19T10:51:15;152.32;;;144.00;;
25932;SDS011;13731;51.166;4.474;2022-08-19T10:54:00;159.85;;;151.95;;
25932;SDS011;13731;51.166;4.474;2022-08-19T10:56:26;163.45;;;154.93;;
25932;SDS011;13731;51.166;4.474;2022-08-19T10:59:12;158.07;;;149.90;;
25932;SDS011;13731;51.166;4.474;2022-08-19T11:01:40;188.70;;;179.15;;
25932;SDS011;13731;51.166;4.474;2022-08-19T11:04:07;177.88;;;168.65;;
25932;SDS011;13731;51.166;4.474;2022-08-19T11:06:41;155.48;;;146.93;;
25932;SDS011;13731;51.166;4.474;2022-08-19T11:09:08;157.90;;;149.60;;
25932;SDS011;13731;51.166;4.474;2022-08-19T11:11:36;147.02;;;139.30;;
25932;SDS011;13731;51.166;4.474;2022-08-19T11:14:10;172.32;;;163.10;;
25932;SDS011;13731;51.166;4.474;2022-08-19T11:16:37;165.55;;;156.68;;
25932;SDS011;13731;51.166;4.474;2022-08-19T11:19:07;226.88;;;214.77;;
25932;SDS011;13731;51.166;4.474;2022-08-19T11:21:35;305.65;;;289.30;;
25932;SDS011;13731;51.166;4.474;2022-08-19T11:24:05;263.10;;;249.73;;
25932;SDS011;13731;51.166;4.474;2022-08-19T11:26:33;392.85;;;372.05;;
25932;SDS011;13731;51.166;4.474;2022-08-19T11:29:00;360.95;;;342.45;;
25932;SDS011;13731;51.166;4.474;2022-08-19T11:31:29;316.80;;;300.58;;
25932;SDS011;13731;51.166;4.474;2022-08-19T11:33:57;369.83;;;350.00;;
25932;SDS011;13731;51.166;4.474;2022-08-19T11:36:24;301.20;;;286.00;;
25932;SDS011;13731;51.166;4.474;2022-08-19T11:38:51;318.30;;;302.23;;
25932;SDS011;13731;51.166;4.474;2022-08-19T11:41:18;331.42;;;314.50;;
25932;SDS011;13731;51.166;4.474;2022-08-19T11:43:45;354.52;;;336.08;;
25932;SDS011;13731;51.166;4.474;2022-08-19T11:46:12;353.17;;;335.00;;
25932;SDS011;13731;51.166;4.474;2022-08-19T11:48:39;315.27;;;298.67;;
25932;SDS011;13731;51.166;4.474;2022-08-19T11:51:08;321.88;;;305.30;;
25932;SDS011;13731;51.166;4.474;2022-08-19T11:53:36;197.98;;;188.10;;
25932;SDS011;13731;51.166;4.474;2022-08-19T11:56:03;107.22;;;101.72;;
25932;SDS011;13731;51.166;4.474;2022-08-19T11:58:30;52.78;;;49.33;;
25932;SDS011;13731;51.166;4.474;2022-08-19T12:00:56;60.30;;;56.88;;
25932;SDS011;13731;51.166;4.474;2022-08-19T12:03:22;45.53;;;42.80;;
25932;SDS011;13731;51.166;4.474;2022-08-19T12:05:49;50.03;;;46.88;;
25932;SDS011;13731;51.166;4.474;2022-08-19T12:08:15;35.45;;;33.30;;
25932;SDS011;13731;51.166;4.474;2022-08-19T12:10:42;42.85;;;40.30;;
25932;SDS011;13731;51.166;4.474;2022-08-19T12:13:09;33.40;;;31.35;;
25932;SDS011;13731;51.166;4.474;2022-08-19T12:15:38;39.75;;;37.08;;
25932;SDS011;13731;51.166;4.474;2022-08-19T12:18:08;52.15;;;48.88;;
25932;SDS011;13731;51.166;4.474;2022-08-19T12:20:38;39.45;;;36.92;;
25932;SDS011;13731;51.166;4.474;2022-08-19T12:23:06;43.42;;;40.75;;
25932;SDS011;13731;51.166;4.474;2022-08-19T12:25:34;76.68;;;72.03;;
25932;SDS011;13731;51.166;4.474;2022-08-19T12:28:01;135.32;;;127.60;;
25932;SDS011;13731;51.166;4.474;2022-08-19T12:30:28;194.55;;;183.93;;
25932;SDS011;13731;51.166;4.474;2022-08-19T12:32:54;338.25;;;320.17;;
25932;SDS011;13731;51.166;4.474;2022-08-19T12:35:20;436.17;;;412.83;;
25932;SDS011;13731;51.166;4.474;2022-08-19T12:37:46;501.10;;;473.80;;
25932;SDS011;13731;51.166;4.474;2022-08-19T12:40:14;641.45;;;604.15;;
25932;SDS011;13731;51.166;4.474;2022-08-19T12:42:41;605.55;;;569.58;;
25932;SDS011;13731;51.166;4.474;2022-08-19T12:45:10;599.97;;;567.25;;
25932;SDS011;13731;51.166;4.474;2022-08-19T12:47:37;551.97;;;523.58;;
25932;SDS011;13731;51.166;4.474;2022-08-19T12:50:04;586.92;;;555.22;;
25932;SDS011;13731;51.166;4.474;2022-08-19T12:52:34;518.40;;;492.85;;
25932;SDS011;13731;51.166;4.474;2022-08-19T12:55:02;479.05;;;455.35;;
25932;SDS011;13731;51.166;4.474;2022-08-19T12:57:30;501.98;;;476.48;;
25932;SDS011;13731;51.166;4.474;2022-08-19T12:59:58;406.77;;;387.88;;
25932;SDS011;13731;51.166;4.474;2022-08-19T13:02:37;331.13;;;315.83;;
25932;SDS011;13731;51.166;4.474;2022-08-19T13:05:05;388.98;;;370.83;;
25932;SDS011;13731;51.166;4.474;2022-08-19T13:07:36;369.85;;;352.67;;
25932;SDS011;13731;51.166;4.474;2022-08-19T13:10:05;348.25;;;332.17;;
25932;SDS011;13731;51.166;4.474;2022-08-19T13:12:32;369.52;;;351.90;;
25932;SDS011;13731;51.166;4.474;2022-08-19T13:14:58;358.27;;;341.33;;
25932;SDS011;13731;51.166;4.474;2022-08-19T13:17:24;344.00;;;327.27;;
25932;SDS011;13731;51.166;4.474;2022-08-19T13:19:50;381.73;;;363.65;;
25932;SDS011;13731;51.166;4.474;2022-08-19T13:22:16;337.00;;;320.75;;
25932;SDS011;13731;51.166;4.474;2022-08-19T13:24:42;300.27;;;286.17;;
25932;SDS011;13731;51.166;4.474;2022-08-19T13:27:08;285.98;;;272.15;;
25932;SDS011;13731;51.166;4.474;2022-08-19T13:29:34;228.40;;;217.57;;
25932;SDS011;13731;51.166;4.474;2022-08-19T13:32:18;274.45;;;260.45;;
25932;SDS011;13731;51.166;4.474;2022-08-19T13:35:03;248.90;;;236.55;;
25932;SDS011;13731;51.166;4.474;2022-08-19T13:37:29;175.10;;;166.73;;
25932;SDS011;13731;51.166;4.474;2022-08-19T13:40:08;258.77;;;246.15;;
25932;SDS011;13731;51.166;4.474;2022-08-19T13:42:42;136.02;;;129.65;;
25932;SDS011;13731;51.166;4.474;2022-08-19T13:45:13;184.38;;;175.48;;
25932;SDS011;13731;51.166;4.474;2022-08-19T13:47:40;138.43;;;131.82;;
25932;SDS011;13731;51.166;4.474;2022-08-19T13:50:10;137.40;;;130.68;;
25932;SDS011;13731;51.166;4.474;2022-08-19T13:52:40;210.15;;;199.82;;
25932;SDS011;13731;51.166;4.474;2022-08-19T13:55:07;287.88;;;273.77;;
25932;SDS011;13731;51.166;4.474;2022-08-19T13:57:34;251.02;;;239.05;;
25932;SDS011;13731;51.166;4.474;2022-08-19T14:00:00;223.52;;;213.15;;
25932;SDS011;13731;51.166;4.474;2022-08-19T14:02:29;256.05;;;243.75;;
25932;SDS011;13731;51.166;4.474;2022-08-19T14:04:55;253.60;;;242.02;;
25932;SDS011;13731;51.166;4.474;2022-08-19T14:07:21;258.92;;;247.10;;
25932;SDS011;13731;51.166;4.474;2022-08-19T14:09:49;263.17;;;251.07;;
25932;SDS011;13731;51.166;4.474;2022-08-19T14:12:18;288.92;;;275.58;;
25932;SDS011;13731;51.166;4.474;2022-08-19T14:14:45;318.15;;;303.02;;
25932;SDS011;13731;51.166;4.474;2022-08-19T14:17:11;303.30;;;288.88;;
25932;SDS011;13731;51.166;4.474;2022-08-19T14:19:39;293.52;;;279.92;;
25932;SDS011;13731;51.166;4.474;2022-08-19T14:22:04;342.48;;;325.95;;
25932;SDS011;13731;51.166;4.474;2022-08-19T14:24:30;297.38;;;283.63;;
25932;SDS011;13731;51.166;4.474;2022-08-19T14:26:59;288.75;;;275.42;;
25932;SDS011;13731;51.166;4.474;2022-08-19T14:29:25;259.27;;;247.07;;